Time;durP1;ratioP1;P1;durP2;ratioP2;P2;SDS_P1;SDS_P2;PMS_P1;PMS_P2;Temp;Humidity;BMP_temperature;BMP_pressure;BME280_temperature;BME280_humidity;BME280_pressure;Samples;Min_cycle;Max_cycle;Signal;HPM_P1;HPM_P2
2024/01/29 00:01:21;;;;;;;13.55;11.60;;;;;;;1.18;100.00;97497.63;5069246;28;20055;-68
2024/01/29 00:03:47;;;;;;;16.38;11.90;;;;;;;1.18;100.00;97505.41;5069602;28;20070;-67
2024/01/29 00:06:12;;;;;;;17.48;13.00;;;;;;;1.21;100.00;97504.44;5067474;28;20028;-67
2024/01/29 00:08:38;;;;;;;16.23;12.98;;;;;;;1.16;100.00;97503.72;5068851;28;20021;-67
2024/01/29 00:11:03;;;;;;;15.25;12.25;;;;;;;1.16;100.00;97501.13;5057503;28;20052;-67
2024/01/29 00:13:29;;;;;;;13.02;11.55;;;;;;;1.10;100.00;97496.94;5067419;28;20028;-67
2024/01/29 00:15:54;;;;;;;13.63;10.07;;;;;;;1.07;100.00;97495.28;5069281;28;20033;-67
2024/01/29 00:18:20;;;;;;;12.93;10.95;;;;;;;1.08;100.00;97494.41;5070915;28;20070;-67
2024/01/29 00:20:45;;;;;;;13.48;9.95;;;;;;;1.11;100.00;97496.91;5059930;28;20086;-67
2024/01/29 00:23:10;;;;;;;13.63;9.85;;;;;;;1.09;100.00;97500.44;5075652;28;20052;-68
2024/01/29 00:25:36;;;;;;;10.60;9.60;;;;;;;1.08;100.00;97498.72;5064119;28;20028;-67
2024/01/29 00:28:01;;;;;;;10.65;9.40;;;;;;;1.05;100.00;97502.28;5073620;28;20036;-67
2024/01/29 00:30:27;;;;;;;12.52;10.52;;;;;;;1.02;100.00;97488.50;5072497;28;20040;-67
2024/01/29 00:32:52;;;;;;;14.40;10.20;;;;;;;0.98;100.00;97498.97;5064392;28;20028;-67
2024/01/29 00:35:17;;;;;;;10.50;9.48;;;;;;;0.96;100.00;97497.28;5071174;28;20097;-67
2024/01/29 00:37:43;;;;;;;10.90;9.80;;;;;;;0.94;100.00;97501.66;5063463;28;20098;-67
2024/01/29 00:40:09;;;;;;;12.02;9.95;;;;;;;0.91;100.00;97496.56;5064614;28;20031;-67
2024/01/29 00:42:34;;;;;;;13.13;9.68;;;;;;;0.88;100.00;97502.66;5072803;28;20049;-67
2024/01/29 00:44:59;;;;;;;11.93;9.40;;;;;;;0.89;100.00;97500.94;5070312;28;20021;-67
2024/01/29 00:47:25;;;;;;;10.60;9.50;;;;;;;0.86;100.00;97494.06;5073352;28;20016;-68
2024/01/29 00:49:50;;;;;;;10.57;8.35;;;;;;;0.84;100.00;97496.72;5069715;28;20041;-67
2024/01/29 00:52:15;;;;;;;9.57;7.40;;;;;;;0.81;100.00;97488.16;5070083;28;20130;-67
2024/01/29 00:54:41;;;;;;;11.05;7.80;;;;;;;0.82;100.00;97485.53;5067088;28;20029;-67
2024/01/29 00:57:06;;;;;;;11.75;7.88;;;;;;;0.82;100.00;97482.94;5063872;28;20036;-67
2024/01/29 00:59:31;;;;;;;9.90;7.45;;;;;;;0.83;100.00;97484.66;5062476;28;20085;-67
2024/01/29 01:01:57;;;;;;;7.95;6.38;;;;;;;0.82;100.00;97488.13;5061849;28;20031;-67
2024/01/29 01:04:22;;;;;;;9.10;6.60;;;;;;;0.87;100.00;97492.34;5064139;28;20020;-67
2024/01/29 01:06:48;;;;;;;9.05;6.85;;;;;;;0.82;100.00;97492.44;5069395;28;20622;-67
2024/01/29 01:09:14;;;;;;;8.85;6.45;;;;;;;0.74;100.00;97489.19;5069104;28;20100;-67
2024/01/29 01:11:41;;;;;;;10.90;7.95;;;;;;;0.69;100.00;97500.53;5062382;28;20107;-67
2024/01/29 01:14:06;;;;;;;12.05;9.10;;;;;;;0.67;100.00;97498.84;5069148;28;20099;-68
2024/01/29 01:16:31;;;;;;;8.18;7.28;;;;;;;0.69;100.00;97502.25;5072331;28;20094;-67
2024/01/29 01:18:57;;;;;;;9.68;6.60;;;;;;;0.70;100.00;97509.16;5068639;28;20075;-67
2024/01/29 01:21:22;;;;;;;9.45;8.45;;;;;;;0.71;100.00;97510.84;5076670;28;20016;-68
2024/01/29 01:23:48;;;;;;;9.27;8.40;;;;;;;0.66;100.00;97511.00;5066654;28;20035;-67
2024/01/29 01:26:13;;;;;;;10.75;7.85;;;;;;;0.64;100.00;97507.56;5061539;28;20033;-67
2024/01/29 01:28:38;;;;;;;9.55;7.32;;;;;;;0.62;100.00;97514.50;5070601;28;20044;-67
2024/01/29 01:31:04;;;;;;;8.35;7.15;;;;;;;0.61;100.00;97507.63;5062674;28;20028;-67
2024/01/29 01:33:29;;;;;;;13.80;7.47;;;;;;;0.61;100.00;97509.38;5070882;28;20032;-67
2024/01/29 01:35:54;;;;;;;8.98;6.65;;;;;;;0.62;100.00;97517.09;5058271;28;20207;-68
2024/01/29 01:38:20;;;;;;;7.70;6.90;;;;;;;0.56;100.00;97512.06;5065623;28;20039;-67
2024/01/29 01:40:45;;;;;;;8.98;7.18;;;;;;;0.59;100.00;97517.19;5066815;28;20089;-67
2024/01/29 01:43:16;;;;;;;8.38;6.70;;;;;;;0.53;100.00;97509.56;5064868;28;20057;-67
2024/01/29 01:45:41;;;;;;;7.20;6.50;;;;;;;0.50;100.00;97510.47;5060540;28;20024;-67
2024/01/29 01:48:07;;;;;;;8.80;6.05;;;;;;;0.50;100.00;97518.25;5068370;28;20024;-67
2024/01/29 01:50:32;;;;;;;6.85;6.15;;;;;;;0.52;100.00;97513.88;5069983;28;20032;-67
2024/01/29 01:52:58;;;;;;;6.85;5.88;;;;;;;0.54;100.00;97504.31;5060950;28;20032;-67
2024/01/29 01:55:24;;;;;;;7.28;6.30;;;;;;;0.48;100.00;97506.22;5073110;28;20036;-67
2024/01/29 01:57:50;;;;;;;7.85;6.72;;;;;;;0.43;100.00;97498.53;5061856;28;20040;-67
2024/01/29 02:00:16;;;;;;;17.33;8.30;;;;;;;0.42;100.00;97509.81;5057931;28;20036;-67
2024/01/29 02:02:42;;;;;;;11.25;9.13;;;;;;;0.41;100.00;97508.09;5066491;28;20036;-67
2024/01/29 02:05:07;;;;;;;16.73;9.55;;;;;;;0.39;100.00;97497.75;5067664;28;20032;-67
2024/01/29 02:07:33;;;;;;;14.40;9.98;;;;;;;0.37;100.00;97507.31;5067176;28;20028;-67
2024/01/29 02:09:59;;;;;;;16.35;11.05;;;;;;;0.38;100.00;97503.81;5063404;28;20051;-67
2024/01/29 02:12:25;;;;;;;12.25;9.32;;;;;;;0.40;100.00;97508.97;5064001;28;20095;-68
2024/01/29 02:14:51;;;;;;;12.80;10.10;;;;;;;0.35;100.00;97498.72;5059016;28;20452;-67
2024/01/29 02:17:17;;;;;;;13.63;9.52;;;;;;;0.31;100.00;97504.00;5075200;28;20029;-67
2024/01/29 02:19:42;;;;;;;12.63;10.10;;;;;;;0.33;100.00;97510.00;5073116;28;20029;-67
2024/01/29 02:22:08;;;;;;;15.43;9.85;;;;;;;0.31;100.00;97507.44;5076594;28;20048;-67
2024/01/29 02:24:33;;;;;;;15.55;9.88;;;;;;;0.32;100.00;97503.09;5060909;28;20025;-67
2024/01/29 02:26:58;;;;;;;11.48;8.90;;;;;;;0.28;100.00;97508.34;5071542;28;20029;-67
2024/01/29 02:29:24;;;;;;;11.68;7.75;;;;;;;0.32;100.00;97513.47;5068453;28;20020;-67
2024/01/29 02:31:49;;;;;;;8.80;7.00;;;;;;;0.33;100.00;97504.81;5070336;28;20056;-67
2024/01/29 02:34:15;;;;;;;13.57;7.22;;;;;;;0.29;100.00;97506.63;5055666;28;20079;-67
2024/01/29 02:36:40;;;;;;;10.80;7.30;;;;;;;0.25;100.00;97510.19;5063472;28;20489;-67
2024/01/29 02:39:08;;;;;;;9.48;6.82;;;;;;;0.24;100.00;97511.91;5059663;28;20120;-68
2024/01/29 02:41:33;;;;;;;13.27;7.65;;;;;;;0.25;100.00;97505.84;5067613;28;20063;-67
2024/01/29 02:43:58;;;;;;;8.43;6.18;;;;;;;0.26;100.00;97507.53;5068331;28;20021;-67
2024/01/29 02:46:24;;;;;;;9.18;5.80;;;;;;;0.24;100.00;97511.06;5071604;28;20020;-67
2024/01/29 02:48:49;;;;;;;9.82;6.65;;;;;;;0.22;100.00;97508.50;5070293;28;20017;-67
2024/01/29 02:51:15;;;;;;;6.82;6.10;;;;;;;0.25;100.00;97510.19;5067265;28;20016;-67
2024/01/29 02:53:40;;;;;;;8.68;6.35;;;;;;;0.26;100.00;97504.13;5067943;28;20021;-67
2024/01/29 02:56:06;;;;;;;10.15;6.00;;;;;;;0.30;100.00;97504.88;5069510;28;20031;-67
2024/01/29 02:58:31;;;;;;;7.68;6.50;;;;;;;0.29;100.00;97506.63;5061282;28;20024;-67
2024/01/29 03:00:57;;;;;;;7.60;6.65;;;;;;;0.25;100.00;97502.41;5062293;28;20432;-67
2024/01/29 03:03:22;;;;;;;12.10;7.10;;;;;;;0.24;100.00;97503.28;5070806;28;20664;-67
2024/01/29 03:05:48;;;;;;;9.30;6.65;;;;;;;0.25;100.00;97500.66;5071364;28;20455;-68
2024/01/29 03:08:13;;;;;;;18.20;6.72;;;;;;;0.20;100.00;97505.09;5069212;28;20504;-67
2024/01/29 03:10:38;;;;;;;14.55;7.57;;;;;;;0.14;100.00;97498.28;5062320;28;20016;-67
2024/01/29 03:13:04;;;;;;;15.00;6.95;;;;;;;0.12;100.00;97501.81;5069932;28;20024;-67
2024/01/29 03:15:29;;;;;;;15.75;7.30;;;;;;;0.08;100.00;97506.22;5055981;28;20044;-67
2024/01/29 03:17:55;;;;;;;11.30;7.10;;;;;;;0.03;100.00;97504.59;5062270;28;20103;-67
2024/01/29 03:20:20;;;;;;;11.30;6.75;;;;;;;0.04;100.00;97511.47;5059662;28;20025;-67
2024/01/29 03:22:45;;;;;;;16.17;7.97;;;;;;;0.02;100.00;97506.34;5072334;28;20036;-67
2024/01/29 03:25:11;;;;;;;13.77;7.20;;;;;;;0.01;100.00;97504.66;5059583;28;20021;-67
2024/01/29 03:27:36;;;;;;;16.92;8.23;;;;;;;-0.04;100.00;97502.13;5058656;28;20021;-67
2024/01/29 03:30:02;;;;;;;9.80;6.68;;;;;;;-0.02;100.00;97499.50;5065967;28;20048;-68
2024/01/29 03:32:27;;;;;;;9.93;6.55;;;;;;;-0.03;100.00;97503.84;5055688;28;20021;-67
2024/01/29 03:34:52;;;;;;;14.98;7.88;;;;;;;-0.05;100.00;97495.25;5065044;28;20572;-67
2024/01/29 03:37:18;;;;;;;11.07;6.95;;;;;;;-0.08;100.00;97500.50;5059462;28;20040;-67
2024/01/29 03:39:43;;;;;;;10.55;6.80;;;;;;;-0.10;100.00;97493.63;5065964;28;20482;-67
2024/01/29 03:42:08;;;;;;;12.18;6.38;;;;;;;-0.13;100.00;97494.53;5066954;28;20045;-67
2024/01/29 03:44:34;;;;;;;11.32;6.88;;;;;;;-0.12;100.00;97501.44;5055248;28;20028;-67
2024/01/29 03:46:59;;;;;;;10.40;6.43;;;;;;;-0.12;100.00;97492.81;5067707;28;20023;-67
2024/01/29 03:49:25;;;;;;;11.25;6.05;;;;;;;-0.13;100.00;97491.94;5062985;28;20289;-67
2024/01/29 03:51:50;;;;;;;10.65;5.50;;;;;;;-0.15;100.00;97494.59;5072506;28;20044;-67
2024/01/29 03:54:15;;;;;;;13.63;6.30;;;;;;;-0.20;100.00;97491.25;5070391;28;20029;-67
2024/01/29 03:56:41;;;;;;;12.27;6.43;;;;;;;-0.22;100.00;97493.03;5057015;28;20041;-67
2024/01/29 03:59:10;;;;;;;9.80;6.00;;;;;;;-0.28;100.00;97490.53;5055867;28;20025;-67
2024/01/29 04:01:37;;;;;;;15.25;6.97;;;;;;;-0.27;100.00;97491.41;5060266;28;20021;-67
2024/01/29 04:04:02;;;;;;;10.68;6.10;;;;;;;-0.28;100.00;97487.13;5090350;28;20284;-67
2024/01/29 04:06:28;;;;;;;7.30;5.78;;;;;;;-0.27;100.00;97488.81;5070930;28;20029;-67
2024/01/29 04:08:53;;;;;;;8.45;5.75;;;;;;;-0.24;100.00;97486.16;5037985;28;20112;-67
2024/01/29 04:11:19;;;;;;;5.82;5.32;;;;;;;-0.30;100.00;97493.19;5058241;28;20048;-67
2024/01/29 04:13:44;;;;;;;6.68;5.47;;;;;;;-0.32;100.00;97481.13;5056477;28;20044;-67
2024/01/29 04:16:13;;;;;;;20.63;12.63;;;;;;;-0.36;100.00;97475.16;5074830;28;20021;-67
2024/01/29 04:18:39;;;;;;;16.98;10.75;;;;;;;-0.37;100.00;97475.19;5065468;28;20020;-67
2024/01/29 04:21:06;;;;;;;12.27;9.85;;;;;;;-0.35;100.00;97478.59;5060108;28;20024;-67
2024/01/29 04:23:35;;;;;;;13.00;8.23;;;;;;;-0.38;100.00;97478.69;5055086;28;20017;-67
2024/01/29 04:26:00;;;;;;;11.15;6.78;;;;;;;-0.42;100.00;97474.44;5054918;28;20021;-67
2024/01/29 04:28:26;;;;;;;8.90;6.28;;;;;;;-0.44;100.00;97467.56;5061842;28;20036;-67
2024/01/29 04:30:51;;;;;;;8.27;6.47;;;;;;;-0.46;100.00;97474.47;5054838;28;20070;-67
2024/01/29 04:33:16;;;;;;;7.28;5.95;;;;;;;-0.45;100.00;97465.00;5058773;28;20488;-67
2024/01/29 04:35:42;;;;;;;10.73;5.25;;;;;;;-0.44;100.00;97461.53;5067406;28;20107;-67
2024/01/29 04:38:07;;;;;;;8.93;6.20;;;;;;;-0.47;100.00;97466.78;5059820;28;20029;-67
2024/01/29 04:40:38;;;;;;;8.40;5.95;;;;;;;-0.44;100.00;97464.13;5061405;28;20103;-67
2024/01/29 04:43:04;;;;;;;10.18;7.05;;;;;;;-0.43;100.00;97463.22;5060200;28;20102;-67
2024/01/29 04:45:30;;;;;;;15.93;10.35;;;;;;;-0.47;100.00;97462.44;5054740;28;20017;-67
2024/01/29 04:47:55;;;;;;;17.30;11.57;;;;;;;-0.49;100.00;97458.19;5065386;28;20013;-67
2024/01/29 04:50:20;;;;;;;16.20;10.55;;;;;;;-0.47;100.00;97465.00;5062036;28;20083;-67
2024/01/29 04:52:46;;;;;;;13.98;8.68;;;;;;;-0.41;100.00;97464.03;5055041;28;20086;-67
2024/01/29 04:55:12;;;;;;;17.50;9.38;;;;;;;-0.35;100.00;97471.69;5054897;28;20013;-67
2024/01/29 04:57:37;;;;;;;13.48;9.18;;;;;;;-0.33;100.00;97474.25;5068019;28;20032;-67
2024/01/29 05:00:05;;;;;;;12.95;8.60;;;;;;;-0.34;100.00;97470.78;5064758;28;20151;-67
2024/01/29 05:02:30;;;;;;;10.68;8.13;;;;;;;-0.38;100.00;97473.50;5054412;28;20616;-67
2024/01/29 05:04:56;;;;;;;9.82;7.85;;;;;;;-0.38;100.00;97470.91;5054443;28;20082;-67
2024/01/29 05:07:21;;;;;;;10.52;8.10;;;;;;;-0.36;100.00;97463.97;5059210;28;20031;-67
2024/01/29 05:09:46;;;;;;;12.63;8.25;;;;;;;-0.37;100.00;97473.44;5073061;28;20035;-67
2024/01/29 05:12:12;;;;;;;11.27;8.40;;;;;;;-0.35;100.00;97474.28;5060670;28;20453;-67
2024/01/29 05:14:38;;;;;;;9.70;8.45;;;;;;;-0.36;100.00;97464.81;5066821;28;20017;-67
2024/01/29 05:17:04;;;;;;;11.85;9.63;;;;;;;-0.36;100.00;97464.81;5054650;28;20460;-67
2024/01/29 05:19:29;;;;;;;9.55;7.63;;;;;;;-0.37;100.00;97468.28;5055067;28;20071;-67
2024/01/29 05:21:54;;;;;;;8.25;7.45;;;;;;;-0.43;100.00;97460.63;5068519;28;20057;-67
2024/01/29 05:24:20;;;;;;;7.53;6.00;;;;;;;-0.42;100.00;97464.94;5056685;28;20063;-68
2024/01/29 05:26:45;;;;;;;7.18;6.30;;;;;;;-0.42;100.00;97470.09;5064044;28;20112;-67
2024/01/29 05:29:11;;;;;;;17.85;6.65;;;;;;;-0.40;100.00;97470.94;5063314;28;20070;-67
2024/01/29 05:31:36;;;;;;;6.95;5.63;;;;;;;-0.38;100.00;97468.31;5059108;28;20017;-67
2024/01/29 05:34:01;;;;;;;7.57;6.82;;;;;;;-0.35;100.00;97473.44;5056517;28;20028;-68
2024/01/29 05:36:27;;;;;;;7.90;5.82;;;;;;;-0.38;100.00;97471.75;5068459;28;20109;-67
2024/01/29 05:38:52;;;;;;;6.25;5.40;;;;;;;-0.40;100.00;97468.34;5053992;28;20124;-67
2024/01/29 05:41:18;;;;;;;6.00;5.40;;;;;;;-0.41;100.00;97471.81;5053805;28;20041;-67
2024/01/29 05:43:43;;;;;;;9.75;6.43;;;;;;;-0.40;100.00;97472.69;5054250;28;20036;-67
2024/01/29 05:46:08;;;;;;;7.22;5.80;;;;;;;-0.36;100.00;97475.16;5059719;28;20036;-67
2024/01/29 05:48:34;;;;;;;6.60;6.00;;;;;;;-0.35;100.00;97474.28;5059840;28;20047;-67
2024/01/29 05:50:59;;;;;;;6.78;5.97;;;;;;;-0.33;100.00;97472.53;5072090;28;20029;-67
2024/01/29 05:53:24;;;;;;;7.05;5.85;;;;;;;-0.33;100.00;97469.06;5058395;28;20470;-67
2024/01/29 05:55:50;;;;;;;6.47;5.82;;;;;;;-0.30;100.00;97474.19;5061789;28;20032;-67
2024/01/29 05:58:15;;;;;;;7.28;6.35;;;;;;;-0.36;100.00;97475.16;5061061;28;20116;-67
2024/01/29 06:00:41;;;;;;;6.88;6.18;;;;;;;-0.30;100.00;97475.06;5064314;28;20020;-66
2024/01/29 06:03:06;;;;;;;12.57;8.43;;;;;;;-0.34;100.00;97473.38;5066446;28;20263;-67
2024/01/29 06:05:31;;;;;;;10.38;7.30;;;;;;;-0.28;100.00;97482.78;5061867;28;20025;-66
2024/01/29 06:07:57;;;;;;;7.82;7.03;;;;;;;-0.31;100.00;97480.25;5062221;28;20033;-67
2024/01/29 06:10:23;;;;;;;9.18;6.90;;;;;;;-0.33;100.00;97482.88;5069760;28;20036;-67
2024/01/29 06:12:48;;;;;;;10.07;7.80;;;;;;;-0.33;100.00;97482.00;5058729;28;20036;-67
2024/01/29 06:15:13;;;;;;;9.63;8.68;;;;;;;-0.35;100.00;97481.19;5059087;28;20481;-67
2024/01/29 06:17:40;;;;;;;9.82;8.82;;;;;;;-0.35;100.00;97484.63;5061260;28;20401;-67
2024/01/29 06:20:06;;;;;;;7.90;7.10;;;;;;;-0.34;100.00;97490.66;5063245;28;20028;-67
2024/01/29 06:22:31;;;;;;;8.90;7.97;;;;;;;-0.34;100.00;97485.50;5064485;28;20104;-67
2024/01/29 06:24:57;;;;;;;11.07;10.00;;;;;;;-0.38;100.00;97494.19;5065006;28;20058;-66
2024/01/29 06:27:22;;;;;;;9.73;8.27;;;;;;;-0.31;100.00;97490.59;5069875;28;20024;-66
2024/01/29 06:29:48;;;;;;;10.73;8.38;;;;;;;-0.26;100.00;97495.69;5059717;28;20567;-66
2024/01/29 06:32:13;;;;;;;13.25;11.35;;;;;;;-0.28;100.00;97493.13;5066053;28;20049;-66
2024/01/29 06:34:38;;;;;;;19.42;10.95;;;;;;;-0.24;100.00;97504.28;5068091;28;20039;-67
2024/01/29 06:37:04;;;;;;;10.30;9.30;;;;;;;-0.22;100.00;97493.03;5069817;28;20025;-67
2024/01/29 06:39:30;;;;;;;10.65;8.38;;;;;;;-0.23;100.00;97490.44;5060823;28;20465;-67
2024/01/29 06:41:55;;;;;;;32.88;27.30;;;;;;;-0.26;100.00;97491.34;5056738;28;20052;-66
2024/01/29 06:44:20;;;;;;;34.83;28.52;;;;;;;-0.23;100.00;97498.22;5062604;28;20028;-66
2024/01/29 06:46:46;;;;;;;24.45;21.27;;;;;;;-0.26;100.00;97500.88;5069440;28;20104;-66
2024/01/29 06:49:26;;;;;;;29.88;25.13;;;;;;;-0.25;100.00;97502.56;5064325;28;20013;-67
2024/01/29 06:51:51;;;;;;;28.13;23.08;;;;;;;-0.26;100.00;97512.06;5067042;28;20040;-67
2024/01/29 06:54:16;;;;;;;27.30;22.50;;;;;;;-0.25;100.00;97507.75;5068541;28;20393;-66
2024/01/29 06:56:42;;;;;;;31.30;23.92;;;;;;;-0.28;100.00;97506.06;5066059;28;20813;-67
2024/01/29 06:59:07;;;;;;;38.78;27.77;;;;;;;-0.33;100.00;97502.72;5065265;28;20035;-67
2024/01/29 07:01:34;;;;;;;35.25;24.92;;;;;;;-0.35;100.00;97507.09;5058926;28;20048;-68
2024/01/29 07:03:59;;;;;;;30.63;22.92;;;;;;;-0.33;100.00;97507.91;5070602;28;20040;-67
2024/01/29 07:06:25;;;;;;;26.98;22.45;;;;;;;-0.35;100.00;97510.50;5069193;28;20036;-67
2024/01/29 07:08:50;;;;;;;28.10;20.48;;;;;;;-0.35;100.00;97517.44;5066579;28;20032;-66
2024/01/29 07:11:15;;;;;;;22.05;16.85;;;;;;;-0.44;100.00;97515.88;5073516;28;20056;-67
2024/01/29 07:13:41;;;;;;;22.95;16.27;;;;;;;-0.44;100.00;97521.06;5068725;28;20028;-67
2024/01/29 07:16:06;;;;;;;33.30;16.23;;;;;;;-0.39;100.00;97518.38;5069009;28;20029;-66
2024/01/29 07:18:32;;;;;;;21.35;16.10;;;;;;;-0.40;100.00;97509.75;5070498;28;20024;-66
2024/01/29 07:20:57;;;;;;;18.00;14.30;;;;;;;-0.37;100.00;97511.44;5067484;28;20100;-66
2024/01/29 07:23:23;;;;;;;21.48;14.43;;;;;;;-0.30;100.00;97511.28;5080951;28;20358;-67
2024/01/29 07:25:48;;;;;;;18.88;14.60;;;;;;;-0.27;100.00;97525.88;5066314;28;20032;-67
2024/01/29 07:28:14;;;;;;;14.20;12.57;;;;;;;-0.25;100.00;97518.94;5070351;28;20032;-66
2024/01/29 07:30:39;;;;;;;13.50;12.10;;;;;;;-0.18;100.00;97525.72;5070977;28;20068;-66
2024/01/29 07:33:04;;;;;;;21.15;11.40;;;;;;;-0.12;100.00;97524.72;5075859;28;20046;-66
2024/01/29 07:35:30;;;;;;;12.73;11.43;;;;;;;-0.09;100.00;97524.69;5066400;28;20051;-66
2024/01/29 07:37:55;;;;;;;12.85;11.45;;;;;;;-0.06;100.00;97529.81;5067346;28;20085;-66
2024/01/29 07:40:21;;;;;;;12.32;11.02;;;;;;;-0.02;100.00;97531.44;5068342;28;20028;-66
2024/01/29 07:42:47;;;;;;;16.73;13.52;;;;;;;0.04;100.00;97529.59;5063885;28;20057;-67
2024/01/29 07:45:12;;;;;;;14.48;13.20;;;;;;;0.06;100.00;97533.88;5074220;28;20484;-66
2024/01/29 07:47:38;;;;;;;14.57;12.48;;;;;;;0.12;100.00;97527.72;5071299;28;20046;-65
2024/01/29 07:50:04;;;;;;;16.25;12.73;;;;;;;0.19;100.00;97529.28;5068680;28;20063;-65
2024/01/29 07:52:29;;;;;;;15.80;12.50;;;;;;;0.25;100.00;97528.31;5064151;28;20029;-66
2024/01/29 07:54:55;;;;;;;16.13;11.80;;;;;;;0.32;100.00;97527.28;5067324;28;20061;-66
2024/01/29 07:57:20;;;;;;;14.80;11.95;;;;;;;0.38;100.00;97523.72;5069376;28;20036;-67
2024/01/29 07:59:45;;;;;;;15.88;12.82;;;;;;;0.44;100.00;97528.75;5069026;28;20072;-65
2024/01/29 08:02:11;;;;;;;14.20;11.73;;;;;;;0.52;100.00;97526.84;5063704;28;20044;-66
2024/01/29 08:04:37;;;;;;;13.60;11.25;;;;;;;0.60;100.00;97536.19;5061486;28;20039;-65
2024/01/29 08:07:02;;;;;;;13.30;12.00;;;;;;;0.62;100.00;97537.00;5063367;28;20493;-66
2024/01/29 08:09:28;;;;;;;14.98;11.85;;;;;;;0.57;100.00;97534.50;5069264;28;20038;-66
2024/01/29 08:11:53;;;;;;;15.52;12.05;;;;;;;0.59;100.00;97531.91;5067397;28;20058;-65
2024/01/29 08:14:19;;;;;;;20.02;15.40;;;;;;;0.62;100.00;97537.00;5069509;28;20025;-65
2024/01/29 08:16:45;;;;;;;28.17;17.05;;;;;;;0.74;100.00;97534.13;5066748;28;20029;-65
2024/01/29 08:19:11;;;;;;;17.67;15.25;;;;;;;0.80;100.00;97536.59;5066809;28;20032;-66
2024/01/29 08:21:37;;;;;;;22.05;12.63;;;;;;;0.89;100.00;97539.84;5058702;28;20464;-66
2024/01/29 08:24:03;;;;;;;15.35;12.38;;;;;;;0.97;100.00;97530.13;5065906;28;20493;-66
2024/01/29 08:26:29;;;;;;;12.85;11.60;;;;;;;1.06;100.00;97532.50;5063193;28;20029;-66
2024/01/29 08:28:54;;;;;;;20.95;11.20;;;;;;;1.16;100.00;97540.06;5067778;28;20024;-66
2024/01/29 08:31:20;;;;;;;15.75;12.43;;;;;;;1.22;100.00;97542.50;5070520;28;20020;-65
2024/01/29 08:33:45;;;;;;;36.80;14.13;;;;;;;1.26;100.00;97537.19;5065195;28;20133;-66
2024/01/29 08:36:10;;;;;;;21.67;13.63;;;;;;;1.29;100.00;97539.69;5068559;28;20042;-65
2024/01/29 08:38:36;;;;;;;28.20;13.50;;;;;;;1.34;100.00;97546.53;5073070;28;20024;-65
2024/01/29 08:41:03;;;;;;;20.73;14.27;;;;;;;1.37;100.00;97542.09;5067615;28;20031;-66
2024/01/29 08:43:28;;;;;;;33.53;13.82;;;;;;;1.43;100.00;97541.09;5061909;28;20059;-65
2024/01/29 08:45:53;;;;;;;57.78;29.52;;;;;;;1.49;100.00;97550.47;5063346;28;20028;-66
2024/01/29 08:48:19;;;;;;;55.63;39.17;;;;;;;1.51;100.00;97553.88;5064536;28;20029;-65
2024/01/29 08:50:44;;;;;;;60.95;32.25;;;;;;;1.56;100.00;97555.47;5070855;28;20091;-66
2024/01/29 08:53:09;;;;;;;28.80;19.15;;;;;;;1.63;100.00;97558.72;5065128;28;20038;-65
2024/01/29 08:55:35;;;;;;;23.52;18.33;;;;;;;1.63;100.00;97550.94;5065036;28;20039;-65
2024/01/29 08:58:00;;;;;;;30.45;16.63;;;;;;;1.67;100.00;97549.13;5066133;28;20063;-65
2024/01/29 09:00:26;;;;;;;20.88;15.48;;;;;;;1.70;100.00;97551.63;5068710;28;20059;-65
2024/01/29 09:02:51;;;;;;;16.55;11.80;;;;;;;1.73;100.00;97546.34;5071941;28;20047;-65
2024/01/29 09:05:16;;;;;;;16.35;13.70;;;;;;;1.83;100.00;97550.44;5064429;28;20029;-65
2024/01/29 09:07:42;;;;;;;19.42;14.88;;;;;;;1.93;100.00;97557.94;5070706;28;20402;-65
2024/01/29 09:10:08;;;;;;;20.50;17.17;;;;;;;2.02;100.00;97543.84;5069551;28;20138;-65
2024/01/29 09:12:34;;;;;;;26.00;16.75;;;;;;;2.11;100.00;97546.22;5064026;28;20024;-65
2024/01/29 09:15:01;;;;;;;21.80;16.48;;;;;;;2.34;100.00;97545.53;5069783;28;20405;-66
2024/01/29 09:17:27;;;;;;;17.58;11.80;;;;;;;2.58;100.00;97543.06;5068688;28;20028;-66
2024/01/29 09:19:52;;;;;;;20.48;13.48;;;;;;;2.79;100.00;97544.19;5066559;28;20025;-66
2024/01/29 09:22:18;;;;;;;14.70;11.52;;;;;;;3.05;100.00;97539.03;5064139;28;20037;-65
2024/01/29 09:24:43;;;;;;;30.27;21.23;;;;;;;3.27;100.00;97536.56;5072711;28;20126;-66
2024/01/29 09:27:10;;;;;;;32.17;25.23;;;;;;;3.46;100.00;97526.38;5078782;28;20070;-66
2024/01/29 09:29:35;;;;;;;20.17;16.83;;;;;;;3.78;100.00;97515.75;5064982;28;20035;-66
2024/01/29 09:32:01;;;;;;;19.88;17.77;;;;;;;4.05;100.00;97516.50;5070499;28;20040;-66
2024/01/29 09:34:27;;;;;;;16.00;13.13;;;;;;;4.34;100.00;97505.91;5069885;28;20028;-66
2024/01/29 09:36:53;;;;;;;14.38;12.63;;;;;;;4.69;100.00;97499.31;5074640;28;20096;-66
2024/01/29 09:39:19;;;;;;;14.63;10.65;;;;;;;5.05;100.00;97479.59;5066738;28;20557;-67
2024/01/29 09:41:46;;;;;;;9.77;7.32;;;;;;;5.38;100.00;97476.47;5070704;28;20128;-66
2024/01/29 09:44:12;;;;;;;10.07;9.00;;;;;;;5.69;100.00;97466.44;5073430;28;20050;-66
2024/01/29 09:46:39;;;;;;;14.98;13.35;;;;;;;5.96;100.00;97466.97;5062857;28;20029;-66
2024/01/29 09:49:06;;;;;;;14.23;12.02;;;;;;;6.11;100.00;97464.63;5069538;28;20017;-67
2024/01/29 09:51:34;;;;;;;12.07;8.00;;;;;;;6.22;100.00;97467.56;5066988;28;20033;-66
2024/01/29 09:54:01;;;;;;;7.57;6.55;;;;;;;6.44;100.00;97466.56;5070686;28;20032;-66
2024/01/29 09:56:27;;;;;;;10.45;5.80;;;;;;;6.72;100.00;97468.72;5074315;28;20024;-66
2024/01/29 09:58:53;;;;;;;5.82;5.32;;;;;;;7.00;100.00;97469.97;5073383;28;20040;-67
2024/01/29 10:01:20;;;;;;;4.68;4.15;;;;;;;7.03;100.00;97464.59;5066153;28;20029;-66
2024/01/29 10:03:46;;;;;;;5.38;3.95;;;;;;;7.15;100.00;97457.88;5073419;28;20173;-66
2024/01/29 10:06:12;;;;;;;5.57;3.20;;;;;;;7.26;100.00;97459.97;5069560;28;20820;-67
2024/01/29 10:08:38;;;;;;;3.53;3.22;;;;;;;7.42;100.00;97460.06;5062350;28;20017;-67
2024/01/29 10:11:04;;;;;;;4.93;3.50;;;;;;;7.57;100.00;97450.53;5070416;28;20021;-66
2024/01/29 10:13:29;;;;;;;4.20;3.00;;;;;;;7.53;100.00;97450.78;5065893;28;20033;-67
2024/01/29 10:15:56;;;;;;;7.65;5.30;;;;;;;7.58;100.00;97462.72;5063189;28;20028;-67
2024/01/29 10:18:21;;;;;;;16.05;8.35;;;;;;;7.63;100.00;97459.88;5073050;28;20095;-66
2024/01/29 10:20:47;;;;;;;11.32;8.35;;;;;;;7.76;100.00;97449.59;5067496;28;20833;-67
2024/01/29 10:23:12;;;;;;;12.15;10.75;;;;;;;7.63;100.00;97456.38;5071769;28;20032;-67
2024/01/29 10:25:40;;;;;;;13.77;10.50;;;;;;;7.62;100.00;97450.28;5066061;28;20032;-67
2024/01/29 10:28:11;;;;;;;11.80;9.07;;;;;;;7.76;100.00;97456.59;5068122;28;20027;-66
2024/01/29 10:30:41;;;;;;;9.95;6.70;;;;;;;7.83;100.00;97457.94;5064675;28;20033;-67
2024/01/29 10:33:07;;;;;;;9.68;4.45;;;;;;;7.71;100.00;97455.06;5066661;28;20033;-66
2024/01/29 10:35:32;;;;;;;6.10;3.92;;;;;;;7.61;100.00;97456.44;5066057;28;20040;-67
2024/01/29 10:38:03;;;;;;;4.25;3.50;;;;;;;7.60;100.00;97457.38;5068870;28;20568;-67
2024/01/29 10:40:30;;;;;;;5.20;3.58;;;;;;;7.61;100.00;97453.81;5066576;28;20036;-66
2024/01/29 10:42:58;;;;;;;3.70;3.40;;;;;;;7.64;100.00;97452.84;5067312;28;20098;-66
2024/01/29 10:45:24;;;;;;;5.15;3.30;;;;;;;7.72;100.00;97441.03;5057787;28;20033;-66
2024/01/29 10:47:57;;;;;;;4.47;3.38;;;;;;;7.91;100.00;97447.91;5075138;28;20062;-66
2024/01/29 10:50:23;;;;;;;5.45;3.20;;;;;;;8.10;100.00;97441.69;5069790;28;20066;-67
2024/01/29 10:52:50;;;;;;;7.22;3.05;;;;;;;8.22;100.00;97440.16;5072117;28;20033;-67
2024/01/29 10:55:16;;;;;;;5.55;3.35;;;;;;;8.30;100.00;97430.06;5066064;28;20035;-66
2024/01/29 10:57:47;;;;;;;6.53;3.20;;;;;;;8.30;100.00;97424.81;5071384;28;20035;-66
2024/01/29 11:00:18;;;;;;;4.97;3.22;;;;;;;8.41;100.00;97416.34;5068672;28;20028;-67
2024/01/29 11:02:45;;;;;;;6.18;4.63;;;;;;;8.54;100.00;97422.66;5067370;28;20025;-67
2024/01/29 11:05:13;;;;;;;5.93;4.93;;;;;;;8.72;100.00;97415.50;5068221;28;20492;-67
2024/01/29 11:07:41;;;;;;;12.50;8.80;;;;;;;8.93;100.00;97407.31;5063796;28;20048;-67
2024/01/29 11:10:16;;;;;;;5.97;4.80;;;;;;;9.12;100.00;97407.06;5073030;28;20025;-68
2024/01/29 11:12:43;;;;;;;7.22;2.78;;;;;;;9.18;100.00;97403.25;5068851;28;20063;-67
2024/01/29 11:15:10;;;;;;;4.93;3.15;;;;;;;9.21;100.00;97396.97;5071251;28;20032;-68